Time;durP1;ratioP1;P1;durP2;ratioP2;P2;SDS_P1;SDS_P2;PMS_P1;PMS_P2;Temp;Humidity;BMP_temperature;BMP_pressure;BME280_temperature;BME280_humidity;BME280_pressure;Samples;Min_cycle;Max_cycle;Signal;HPM_P1;HPM_P2
2024/03/19 00:04:34;;;;;;;11.90;9.50;;;;;;;1.95;71.61;99153.80;226944;1271;22597;-79
2024/03/19 00:09:36;;;;;;;11.30;9.20;;;;;;;1.93;71.55;99157.33;226863;1272;22529;-79
2024/03/19 00:14:38;;;;;;;11.80;9.50;;;;;;;1.91;71.48;99154.88;226907;1270;22628;-79
2024/03/19 00:19:40;;;;;;;15.30;9.20;;;;;;;1.89;71.70;99152.46;226934;1270;22535;-79
2024/03/19 00:24:43;;;;;;;14.70;10.30;;;;;;;1.87;71.87;99149.81;226989;1272;22543;-79
2024/03/19 00:29:45;;;;;;;15.00;9.10;;;;;;;1.86;71.84;99151.31;226909;1270;22542;-79
2024/03/19 00:34:47;;;;;;;15.20;9.90;;;;;;;1.82;72.01;99149.92;226723;1274;22562;-79
2024/03/19 00:39:49;;;;;;;15.10;10.90;;;;;;;1.79;72.18;99153.77;226894;1274;25409;-79
2024/03/19 00:44:51;;;;;;;13.10;9.80;;;;;;;1.77;72.30;99153.90;226811;1274;22540;-79
2024/03/19 00:49:54;;;;;;;14.60;9.70;;;;;;;1.78;72.49;99153.00;226838;1274;22549;-79
2024/03/19 00:54:57;;;;;;;12.30;8.90;;;;;;;1.76;72.44;99155.17;226757;1274;22548;-79
2024/03/19 00:59:59;;;;;;;12.20;9.20;;;;;;;1.76;72.60;99152.98;226906;1274;22564;-79
2024/03/19 01:05:01;;;;;;;12.60;9.40;;;;;;;1.73;72.39;99156.30;226863;1271;22558;-80
2024/03/19 01:10:03;;;;;;;14.90;9.90;;;;;;;1.71;72.76;99152.98;226835;1274;22529;-80
2024/03/19 01:15:06;;;;;;;12.00;9.60;;;;;;;1.71;72.66;99151.09;226789;1272;22557;-78
2024/03/19 01:20:11;;;;;;;17.20;10.40;;;;;;;1.71;72.75;99150.08;226969;1274;22557;-79
2024/03/19 01:25:13;;;;;;;15.90;10.20;;;;;;;1.71;72.89;99149.36;226802;1274;22540;-79
2024/03/19 01:30:16;;;;;;;17.30;12.00;;;;;;;1.69;72.93;99148.68;226978;1273;22577;-80
2024/03/19 01:35:17;;;;;;;14.60;10.70;;;;;;;1.67;73.19;99154.23;226845;1272;22583;-79
2024/03/19 01:40:19;;;;;;;14.70;10.60;;;;;;;1.66;73.18;99153.08;226887;1272;22572;-79
2024/03/19 01:45:22;;;;;;;14.90;11.60;;;;;;;1.65;73.10;99152.77;226845;1274;24252;-79
2024/03/19 01:50:26;;;;;;;13.80;10.40;;;;;;;1.65;73.28;99153.95;226951;1271;22545;-79
2024/03/19 01:55:29;;;;;;;16.50;10.90;;;;;;;1.66;73.30;99156.52;226882;1274;22542;-78
2024/03/19 02:00:31;;;;;;;13.60;10.80;;;;;;;1.65;73.54;99155.73;226980;1272;22544;-78
2024/03/19 02:05:33;;;;;;;16.00;10.50;;;;;;;1.63;73.35;99152.44;226647;1274;24258;-79
2024/03/19 02:10:35;;;;;;;14.70;10.60;;;;;;;1.61;73.49;99152.95;226854;1274;22680;-79
2024/03/19 02:15:37;;;;;;;16.10;11.70;;;;;;;1.58;73.50;99161.19;226942;1273;22534;-78
2024/03/19 02:20:39;;;;;;;19.30;11.60;;;;;;;1.58;73.63;99167.09;227034;1274;22563;-79
2024/03/19 02:25:41;;;;;;;17.70;12.50;;;;;;;1.58;73.67;99166.19;226928;1272;22646;-79
2024/03/19 02:30:42;;;;;;;14.60;11.30;;;;;;;1.56;73.80;99169.66;226807;1274;22649;-79
2024/03/19 02:35:44;;;;;;;16.20;11.60;;;;;;;1.53;73.79;99168.86;226825;1272;22645;-79
2024/03/19 02:40:47;;;;;;;14.60;10.80;;;;;;;1.51;74.00;99166.77;226688;1272;337738;-79
2024/03/19 02:45:49;;;;;;;16.20;10.50;;;;;;;1.49;73.94;99165.52;226890;1271;22547;-79
2024/03/19 02:50:50;;;;;;;14.80;10.90;;;;;;;1.50;74.05;99169.98;226894;1272;22554;-79
2024/03/19 02:55:53;;;;;;;14.60;10.10;;;;;;;1.49;74.31;99170.73;226923;1274;22540;-79
2024/03/19 03:00:55;;;;;;;14.60;11.30;;;;;;;1.48;74.14;99174.79;226922;1274;22594;-79
2024/03/19 03:05:57;;;;;;;17.70;11.20;;;;;;;1.49;74.23;99179.11;226765;1272;22547;-79
2024/03/19 03:10:59;;;;;;;19.00;12.80;;;;;;;1.50;74.57;99179.91;226970;1274;22555;-79
2024/03/19 03:16:00;;;;;;;18.00;13.30;;;;;;;1.51;74.65;99180.86;226928;1274;22560;-79
2024/03/19 03:21:02;;;;;;;17.30;13.00;;;;;;;1.53;74.77;99184.53;226949;1252;25528;-79
2024/03/19 03:26:04;;;;;;;21.10;13.70;;;;;;;1.52;74.73;99184.93;226958;1274;22550;-79
2024/03/19 03:31:06;;;;;;;19.80;14.20;;;;;;;1.51;74.86;99188.10;226682;1274;22549;-79
2024/03/19 03:36:08;;;;;;;20.50;14.30;;;;;;;1.49;74.70;99191.92;226953;1272;22577;-79
2024/03/19 03:41:10;;;;;;;22.60;15.30;;;;;;;1.48;74.98;99196.04;226840;1272;22557;-79
2024/03/19 03:46:11;;;;;;;20.60;14.90;;;;;;;1.47;75.17;99203.20;226982;1272;22578;-79
2024/03/19 03:51:13;;;;;;;19.70;14.80;;;;;;;1.46;74.96;99203.27;226966;1271;22542;-79
2024/03/19 03:56:15;;;;;;;20.90;15.10;;;;;;;1.44;75.17;99207.94;226945;1272;23104;-79
2024/03/19 04:01:18;;;;;;;20.60;14.60;;;;;;;1.44;75.16;99206.56;226904;1272;22565;-79
2024/03/19 04:06:20;;;;;;;17.10;11.60;;;;;;;1.43;75.18;99209.26;226974;1274;25454;-79
2024/03/19 04:11:22;;;;;;;18.20;12.00;;;;;;;1.43;75.47;99218.82;226957;1272;25446;-79
2024/03/19 04:16:25;;;;;;;16.20;11.80;;;;;;;1.42;75.45;99221.80;226939;1272;22941;-79
2024/03/19 04:21:27;;;;;;;17.70;13.10;;;;;;;1.39;75.65;99221.30;226948;1273;22552;-79
2024/03/19 04:26:28;;;;;;;19.20;12.80;;;;;;;1.37;75.62;99223.05;226769;1274;22541;-79
2024/03/19 04:31:33;;;;;;;16.30;12.20;;;;;;;1.36;75.65;99224.48;226935;1274;22556;-79
2024/03/19 04:36:35;;;;;;;19.60;13.40;;;;;;;1.35;75.78;99232.94;226973;1274;22537;-78
2024/03/19 04:41:39;;;;;;;19.00;13.60;;;;;;;1.34;75.99;99237.64;226994;1271;22576;-78
2024/03/19 04:46:41;;;;;;;18.50;12.80;;;;;;;1.36;76.03;99239.61;226964;1274;22539;-80
2024/03/19 04:51:42;;;;;;;21.20;14.30;;;;;;;1.36;75.99;99247.77;226771;1273;22494;-79
2024/03/19 04:56:44;;;;;;;23.40;15.30;;;;;;;1.35;76.13;99253.57;226974;1272;22585;-79
2024/03/19 05:01:47;;;;;;;24.30;16.50;;;;;;;1.34;76.26;99259.34;226904;1274;22588;-79
2024/03/19 05:06:49;;;;;;;24.70;16.30;;;;;;;1.36;76.30;99262.30;226813;1274;22545;-79
2024/03/19 05:11:51;;;;;;;24.60;16.00;;;;;;;1.37;76.28;99267.25;226904;1274;22557;-79
2024/03/19 05:16:53;;;;;;;20.80;14.90;;;;;;;1.39;76.43;99274.62;226896;1273;24169;-79
2024/03/19 05:21:54;;;;;;;26.20;15.60;;;;;;;1.43;76.59;99279.52;226893;1273;22539;-79
2024/03/19 05:26:57;;;;;;;23.50;15.20;;;;;;;1.47;76.65;99276.31;226834;1274;22550;-79
2024/03/19 05:31:59;;;;;;;24.00;15.40;;;;;;;1.50;76.37;99281.58;226821;1274;22559;-79
2024/03/19 05:37:01;;;;;;;25.00;16.20;;;;;;;1.56;76.46;99286.85;226964;1273;22544;-79
2024/03/19 05:42:03;;;;;;;25.10;16.30;;;;;;;1.63;76.49;99292.04;226828;1274;22549;-79
2024/03/19 05:47:05;;;;;;;25.10;16.40;;;;;;;1.69;76.55;99294.45;226838;1274;26052;-79
2024/03/19 05:52:08;;;;;;;23.70;16.10;;;;;;;1.79;76.76;99294.56;226923;1271;22535;-79
2024/03/19 05:57:10;;;;;;;24.70;17.20;;;;;;;1.88;76.70;99300.86;226808;1275;22551;-79
2024/03/19 06:02:12;;;;;;;28.80;18.00;;;;;;;1.94;76.40;99301.96;226868;1274;22570;-80
2024/03/19 06:07:14;;;;;;;28.50;18.80;;;;;;;1.99;76.56;99304.46;226873;1273;22540;-79
2024/03/19 06:12:16;;;;;;;27.80;18.50;;;;;;;2.05;76.47;99307.09;226941;1272;22567;-79
2024/03/19 06:17:18;;;;;;;30.80;18.80;;;;;;;2.12;76.24;99309.65;226932;1274;22550;-79
2024/03/19 06:22:20;;;;;;;26.40;17.30;;;;;;;2.19;76.31;99315.24;226775;1274;22577;-80
2024/03/19 06:27:23;;;;;;;24.60;17.30;;;;;;;2.25;76.25;99320.66;226909;1274;22543;-80
2024/03/19 06:32:24;;;;;;;26.70;18.20;;;;;;;2.29;76.27;99319.94;226840;1274;22533;-79
2024/03/19 06:37:26;;;;;;;26.50;17.10;;;;;;;2.36;76.19;99323.23;226760;1274;22542;-78
2024/03/19 06:42:28;;;;;;;26.10;17.70;;;;;;;2.44;76.27;99329.52;226937;1274;22547;-77
2024/03/19 06:47:30;;;;;;;26.90;17.40;;;;;;;2.52;76.10;99330.16;226864;1274;22524;-79
2024/03/19 06:52:36;;;;;;;30.00;17.90;;;;;;;2.59;75.96;99336.34;226965;1272;24352;-77
2024/03/19 06:57:39;;;;;;;26.50;17.50;;;;;;;2.67;75.87;99338.10;226565;1260;22542;-78
2024/03/19 07:02:42;;;;;;;30.10;18.90;;;;;;;2.78;75.87;99341.94;226774;1270;22535;-79
2024/03/19 07:07:45;;;;;;;24.90;17.10;;;;;;;2.86;75.68;99344.02;226733;1254;22539;-77
2024/03/19 07:12:47;;;;;;;26.20;17.70;;;;;;;2.95;75.50;99346.59;226565;1260;22574;-78
2024/03/19 07:17:52;;;;;;;27.10;18.40;;;;;;;3.08;75.43;99348.51;226603;1270;22560;-76
2024/03/19 07:22:54;;;;;;;24.60;16.60;;;;;;;3.24;75.22;99350.94;226378;1270;22585;-76
2024/03/19 07:27:56;;;;;;;28.60;19.50;;;;;;;3.41;75.00;99355.24;226128;1267;22539;-77
2024/03/19 07:32:59;;;;;;;26.30;17.70;;;;;;;3.64;74.78;99358.10;226170;1267;25360;-77
2024/03/19 07:38:01;;;;;;;25.60;16.90;;;;;;;3.83;74.77;99362.67;226225;1270;22708;-80
2024/03/19 07:43:03;;;;;;;22.40;15.20;;;;;;;4.03;74.38;99367.38;226251;1273;22561;-80
2024/03/19 07:48:06;;;;;;;24.40;16.40;;;;;;;4.19;74.04;99371.89;226243;1271;25265;-78
2024/03/19 07:53:08;;;;;;;23.90;15.50;;;;;;;4.30;73.61;99373.24;226374;1270;22550;-76
2024/03/19 07:58:09;;;;;;;23.80;15.80;;;;;;;4.40;73.26;99379.48;226375;1255;22563;-77
2024/03/19 08:03:13;;;;;;;20.90;15.30;;;;;;;4.52;72.88;99380.20;226568;1254;22774;-76
2024/03/19 08:08:16;;;;;;;23.90;14.40;;;;;;;4.71;73.06;99385.72;226821;1267;24394;-75
2024/03/19 08:13:19;;;;;;;20.60;13.80;;;;;;;4.87;72.35;99388.61;226930;1254;22560;-76
2024/03/19 08:18:20;;;;;;;17.10;13.40;;;;;;;4.98;71.96;99393.19;226778;1270;22543;-77
2024/03/19 08:23:22;;;;;;;19.90;13.10;;;;;;;5.06;71.19;99395.12;226611;1267;22541;-79
2024/03/19 08:28:24;;;;;;;18.90;13.10;;;;;;;5.12;70.98;99391.40;226458;1259;22564;-76
2024/03/19 08:33:26;;;;;;;16.40;12.10;;;;;;;5.17;70.19;99394.57;226857;1270;24236;-75
2024/03/19 08:38:28;;;;;;;16.90;12.40;;;;;;;5.34;70.19;99396.73;226824;1270;22546;-78
2024/03/19 08:43:30;;;;;;;17.20;12.00;;;;;;;5.59;69.82;99395.11;226495;1270;22614;-76
2024/03/19 08:48:32;;;;;;;21.20;12.80;;;;;;;5.95;69.70;99391.82;226490;1267;22538;-76
2024/03/19 08:53:34;;;;;;;16.70;13.10;;;;;;;6.19;68.83;99395.46;226413;1274;22595;-76
2024/03/19 08:58:39;;;;;;;16.50;13.40;;;;;;;6.34;68.44;99395.80;226529;1273;24175;-79
2024/03/19 09:03:42;;;;;;;18.50;13.00;;;;;;;6.50;67.62;99396.55;226405;1272;25410;-76
2024/03/19 09:08:44;;;;;;;16.80;13.50;;;;;;;6.59;67.10;99399.50;226704;1272;22543;-78
2024/03/19 09:13:46;;;;;;;17.90;13.00;;;;;;;6.69;67.14;99399.02;226574;1272;22569;-78
2024/03/19 09:18:48;;;;;;;14.60;11.50;;;;;;;6.72;66.34;99403.45;226401;1251;22951;-78
2024/03/19 09:23:56;;;;;;;15.60;11.30;;;;;;;6.83;66.02;99401.02;226136;1250;22549;-79
2024/03/19 09:28:58;;;;;;;18.80;12.40;;;;;;;6.98;66.06;99406.84;226358;1270;22555;-80
2024/03/19 09:34:00;;;;;;;19.60;14.40;;;;;;;7.09;65.31;99407.72;226278;1272;25377;-76
2024/03/19 09:39:07;;;;;;;11.20;9.30;;;;;;;7.08;64.80;99413.94;226329;1267;22547;-76
2024/03/19 09:44:18;;;;;;;11.40;8.90;;;;;;;7.23;64.48;99413.93;226205;1267;23327;-78
2024/03/19 09:49:21;;;;;;;13.60;10.20;;;;;;;7.37;63.92;99417.05;226181;1253;22537;-77
2024/03/19 09:54:25;;;;;;;9.00;7.50;;;;;;;7.49;63.36;99416.71;226242;1261;22560;-81
2024/03/19 09:59:28;;;;;;;13.70;9.80;;;;;;;7.65;63.21;99412.71;226555;1267;23624;-77
2024/03/19 10:04:30;;;;;;;14.50;10.20;;;;;;;7.83;62.65;99415.45;226524;1260;22673;-79
2024/03/19 10:09:32;;;;;;;14.40;12.20;;;;;;;7.99;62.47;99408.20;226703;1267;22548;-81
2024/03/19 10:14:34;;;;;;;15.80;12.20;;;;;;;8.19;62.38;99408.25;226429;1267;24626;-81
2024/03/19 10:19:36;;;;;;;13.80;11.90;;;;;;;8.34;61.74;99410.05;226398;1270;22555;-81
2024/03/19 10:24:37;;;;;;;13.00;11.00;;;;;;;8.53;62.21;99409.30;226452;1270;25129;-81
2024/03/19 10:29:39;;;;;;;14.90;10.70;;;;;;;8.72;61.14;99409.08;226644;1267;22600;-82
2024/03/19 10:34:44;;;;;;;12.60;10.00;;;;;;;8.63;60.70;99405.95;226585;1274;22537;-82
2024/03/19 10:39:48;;;;;;;14.40;11.40;;;;;;;8.57;60.74;99408.54;226614;1267;23014;-82
2024/03/19 10:44:50;;;;;;;6.30;5.70;;;;;;;8.60;60.48;99407.16;226636;1273;22549;-82
2024/03/19 10:49:51;;;;;;;7.10;5.80;;;;;;;8.70;59.21;99400.08;226680;1272;22549;-82
2024/03/19 10:54:54;;;;;;;7.30;5.70;;;;;;;8.75;58.37;99404.99;226567;1263;22595;-80
2024/03/19 10:59:56;;;;;;;6.20;5.20;;;;;;;8.81;57.41;99405.04;226643;1270;22537;-80
2024/03/19 11:04:58;;;;;;;5.10;4.60;;;;;;;8.91;57.07;99402.83;226568;1270;22547;-80
2024/03/19 11:10:00;;;;;;;5.50;4.40;;;;;;;8.89;56.51;99412.18;226534;1273;22547;-81
2024/03/19 11:15:02;;;;;;;6.80;5.90;;;;;;;8.90;56.22;99409.84;226660;1264;22537;-80
2024/03/19 11:20:05;;;;;;;7.80;6.40;;;;;;;8.80;56.04;99408.34;226692;1263;22561;-75
2024/03/19 11:25:08;;;;;;;9.10;7.40;;;;;;;8.63;56.25;99402.75;226845;1272;22569;-77
2024/03/19 11:30:12;;;;;;;8.00;6.70;;;;;;;8.51;56.43;99399.25;226724;1266;22541;-76
2024/03/19 11:35:21;;;;;;;7.40;6.40;;;;;;;8.67;57.11;99401.48;226583;1265;22659;-77
2024/03/19 11:40:24;;;;;;;8.70;6.90;;;;;;;8.84;56.19;99394.95;226430;1262;22540;-78
2024/03/19 11:45:26;;;;;;;6.90;6.20;;;;;;;8.59;55.10;99389.54;226617;1274;22556;-76
2024/03/19 11:50:28;;;;;;;8.40;6.70;;;;;;;8.58;55.87;99392.43;226643;1267;24269;-78
2024/03/19 11:55:32;;;;;;;8.60;6.80;;;;;;;8.74;55.41;99389.18;226639;1274;22557;-77
2024/03/19 12:00:36;;;;;;;8.10;6.60;;;;;;;8.80;55.08;99381.59;226394;1267;22569;-77
2024/03/19 12:05:52;;;;;;;11.00;7.50;;;;;;;8.76;54.85;99381.91;226324;1272;22549;-76
2024/03/19 12:11:02;;;;;;;10.70;8.40;;;;;;;8.84;55.25;99387.59;226133;1266;22542;-77
2024/03/19 12:16:04;;;;;;;9.00;7.80;;;;;;;8.86;55.29;99390.49;226356;1270;22528;-76
2024/03/19 12:21:06;;;;;;;8.80;7.30;;;;;;;8.70;55.39;99386.22;226285;1273;22571;-76
2024/03/19 12:26:10;;;;;;;9.60;8.20;;;;;;;8.53;55.48;99386.27;226349;1273;22649;-77
2024/03/19 12:31:22;;;;;;;8.90;8.00;;;;;;;8.55;55.88;99385.15;226427;1267;25393;-79
2024/03/19 12:36:24;;;;;;;8.30;6.90;;;;;;;8.74;55.54;99381.54;226278;1258;22537;-77
2024/03/19 12:41:26;;;;;;;9.80;7.80;;;;;;;8.91;55.28;99372.95;226715;1271;22537;-76
2024/03/19 12:46:28;;;;;;;9.70;8.30;;;;;;;9.07;54.88;99370.72;226451;1275;22955;-76
2024/03/19 12:51:30;;;;;;;9.00;8.00;;;;;;;9.22;55.06;99366.27;226663;1273;22610;-76
2024/03/19 12:56:32;;;;;;;13.90;10.30;;;;;;;9.38;55.33;99365.39;226511;1263;22573;-74
2024/03/19 13:01:34;;;;;;;11.90;9.10;;;;;;;9.47;54.73;99363.91;226564;1265;22722;-76
2024/03/19 13:06:36;;;;;;;10.80;8.90;;;;;;;9.37;54.36;99364.10;226347;1268;22522;-76
2024/03/19 13:11:38;;;;;;;10.80;9.10;;;;;;;9.20;54.57;99359.23;226478;1259;22538;-78
2024/03/19 13:16:44;;;;;;;9.80;8.70;;;;;;;9.18;54.60;99355.24;226486;1267;22569;-76
2024/03/19 13:21:46;;;;;;;11.00;9.30;;;;;;;9.17;54.43;99349.29;226531;1274;22549;-75
2024/03/19 13:26:48;;;;;;;10.80;8.40;;;;;;;9.20;54.39;99342.41;226615;1275;22554;-76
2024/03/19 13:31:50;;;;;;;10.70;8.60;;;;;;;9.31;54.31;99334.02;226355;1270;22553;-77
2024/03/19 13:36:52;;;;;;;9.70;8.20;;;;;;;9.53;54.60;99334.05;226585;1253;22591;-76
2024/03/19 13:41:54;;;;;;;10.30;9.20;;;;;;;9.71;54.00;99335.63;226089;1267;22546;-76
2024/03/19 13:46:56;;;;;;;10.60;9.10;;;;;;;9.77;53.65;99337.08;226455;1253;22836;-77
2024/03/19 13:51:58;;;;;;;11.10;9.80;;;;;;;9.72;53.48;99337.61;226403;1260;22619;-76
2024/03/19 13:57:00;;;;;;;10.30;8.90;;;;;;;9.62;53.86;99333.20;226377;1269;22537;-76
2024/03/19 14:02:03;;;;;;;10.90;9.60;;;;;;;9.34;53.76;99338.45;226308;1268;22540;-76
2024/03/19 14:07:05;;;;;;;10.80;9.40;;;;;;;9.12;53.99;99340.11;226521;1266;22709;-79
2024/03/19 14:12:07;;;;;;;10.60;9.30;;;;;;;9.03;54.39;99341.40;226331;1270;23101;-76
2024/03/19 14:17:09;;;;;;;11.40;9.70;;;;;;;8.93;54.26;99340.77;226443;1268;22549;-76
2024/03/19 14:22:10;;;;;;;12.90;9.60;;;;;;;8.80;54.27;99339.17;226613;1267;22542;-76
2024/03/19 14:27:16;;;;;;;12.20;10.20;;;;;;;8.58;54.46;99345.16;226475;1259;23043;-79
2024/03/19 14:32:19;;;;;;;12.20;10.50;;;;;;;8.45;54.71;99349.46;226544;1269;23281;-77
2024/03/19 14:37:21;;;;;;;11.70;9.20;;;;;;;8.34;54.74;99348.38;226567;1262;24361;-75
2024/03/19 14:42:23;;;;;;;10.90;9.80;;;;;;;8.27;54.88;99345.11;226446;1272;185212;-77
2024/03/19 14:47:26;;;;;;;10.60;9.40;;;;;;;8.24;55.01;99340.32;226409;1274;22538;-76
2024/03/19 14:52:28;;;;;;;11.90;9.70;;;;;;;8.21;55.12;99345.38;226705;1268;22568;-77
2024/03/19 14:57:30;;;;;;;12.80;9.60;;;;;;;8.18;55.19;99339.03;226813;1271;22537;-78
2024/03/19 15:02:33;;;;;;;12.00;9.20;;;;;;;8.18;55.41;99334.60;226090;1271;22583;-80
2024/03/19 15:07:34;;;;;;;13.10;10.70;;;;;;;8.20;55.27;99333.36;226094;1271;22551;-78
2024/03/19 15:12:37;;;;;;;11.80;9.30;;;;;;;8.16;55.50;99330.66;226331;1274;22553;-77
2024/03/19 15:17:39;;;;;;;12.10;9.80;;;;;;;8.14;55.52;99339.96;226473;1274;22542;-77
2024/03/19 15:22:45;;;;;;;10.90;9.10;;;;;;;8.03;55.03;99338.83;226859;1272;22582;-77
2024/03/19 15:27:47;;;;;;;11.10;9.70;;;;;;;7.94;55.33;99343.42;226884;1270;22572;-77
2024/03/19 15:32:48;;;;;;;13.40;10.30;;;;;;;7.86;55.32;99345.35;226887;1273;22567;-77
2024/03/19 15:37:50;;;;;;;11.10;9.90;;;;;;;7.76;55.42;99340.69;226858;1273;22573;-77
2024/03/19 15:42:52;;;;;;;12.10;10.20;;;;;;;7.63;55.45;99337.44;226770;1274;22563;-77
2024/03/19 15:47:54;;;;;;;11.90;9.90;;;;;;;7.51;55.82;99340.13;226857;1272;22549;-77
2024/03/19 15:52:56;;;;;;;11.40;9.20;;;;;;;7.39;55.51;99342.20;226993;1270;25320;-77
2024/03/19 15:57:58;;;;;;;11.50;9.60;;;;;;;7.28;55.72;99345.96;227043;1274;22557;-78
2024/03/19 16:03:00;;;;;;;12.00;9.80;;;;;;;7.14;55.87;99351.52;227077;1269;22526;-77
2024/03/19 16:08:02;;;;;;;11.70;9.70;;;;;;;7.03;56.40;99355.27;226989;1274;25346;-77
2024/03/19 16:13:04;;;;;;;11.80;9.20;;;;;;;6.92;56.46;99351.46;226866;1272;22684;-77
2024/03/19 16:18:07;;;;;;;9.90;8.70;;;;;;;6.81;56.29;99350.79;226953;1268;22548;-77
2024/03/19 16:23:10;;;;;;;13.40;9.50;;;;;;;6.67;56.99;99353.33;226791;1274;22534;-77
2024/03/19 16:28:12;;;;;;;11.10;9.50;;;;;;;6.54;57.20;99359.02;226820;1272;22638;-77
2024/03/19 16:33:14;;;;;;;13.90;10.10;;;;;;;6.42;57.34;99359.52;226975;1271;22586;-77
2024/03/19 16:38:16;;;;;;;13.30;9.50;;;;;;;6.27;57.57;99364.56;227009;1271;25325;-77
2024/03/19 16:43:18;;;;;;;13.10;10.70;;;;;;;6.13;57.86;99367.88;227011;1270;22555;-76
2024/03/19 16:48:20;;;;;;;15.00;10.90;;;;;;;5.98;58.25;99370.48;226860;1271;22631;-77
2024/03/19 16:53:25;;;;;;;15.10;11.70;;;;;;;5.84;58.42;99376.16;226880;1274;22537;-77
2024/03/19 16:58:26;;;;;;;15.10;11.50;;;;;;;5.71;58.69;99382.61;226998;1274;25336;-77
2024/03/19 17:03:28;;;;;;;16.00;11.40;;;;;;;5.54;59.18;99389.95;226773;1274;22562;-77
2024/03/19 17:08:32;;;;;;;15.90;11.00;;;;;;;5.40;59.11;99394.98;226989;1271;22547;-77
2024/03/19 17:13:38;;;;;;;17.00;11.90;;;;;;;5.28;59.80;99399.36;226918;1273;22659;-77
2024/03/19 17:18:40;;;;;;;25.80;17.10;;;;;;;5.14;60.25;99405.17;226803;1274;22552;-77
2024/03/19 17:23:43;;;;;;;32.20;19.20;;;;;;;5.01;60.41;99417.00;226865;1274;22589;-78
2024/03/19 17:28:45;;;;;;;29.10;20.10;;;;;;;4.88;60.83;99417.60;226677;1274;22553;-77
2024/03/19 17:33:48;;;;;;;26.50;17.70;;;;;;;4.76;61.43;99423.99;226998;1272;22586;-79
2024/03/19 17:38:50;;;;;;;26.90;18.90;;;;;;;4.63;61.77;99428.63;226794;1274;22542;-78
2024/03/19 17:43:52;;;;;;;27.10;19.70;;;;;;;4.47;61.98;99435.89;226909;1274;22551;-78
2024/03/19 17:48:54;;;;;;;25.20;17.60;;;;;;;4.31;61.95;99442.38;226743;1274;25998;-78
2024/03/19 17:53:58;;;;;;;23.20;15.20;;;;;;;4.15;62.25;99444.77;226781;1274;24962;-79
2024/03/19 17:59:01;;;;;;;20.10;14.00;;;;;;;3.98;62.58;99448.88;226918;1270;24225;-78
2024/03/19 18:04:03;;;;;;;18.90;13.20;;;;;;;3.80;62.95;99455.25;226941;1256;22560;-79
2024/03/19 18:09:05;;;;;;;20.10;14.90;;;;;;;3.64;63.43;99455.57;226850;1272;22614;-79
2024/03/19 18:14:07;;;;;;;20.70;14.30;;;;;;;3.49;64.05;99449.80;226991;1269;22531;-78
2024/03/19 18:19:09;;;;;;;27.80;17.00;;;;;;;3.38;64.16;99458.63;226664;1274;22547;-77
2024/03/19 18:24:11;;;;;;;25.40;16.70;;;;;;;3.27;64.79;99469.77;226799;1274;22695;-78
2024/03/19 18:29:13;;;;;;;28.10;17.50;;;;;;;3.18;64.82;99473.09;226926;1274;22588;-77
2024/03/19 18:34:16;;;;;;;25.20;17.10;;;;;;;3.09;65.52;99469.33;226982;1272;22566;-77
2024/03/19 18:39:23;;;;;;;27.50;18.20;;;;;;;3.01;65.54;99472.75;226687;1272;22578;-77
2024/03/19 18:44:25;;;;;;;25.40;18.10;;;;;;;2.92;65.81;99474.21;226711;1271;22651;-78
2024/03/19 18:49:27;;;;;;;27.90;17.80;;;;;;;2.84;66.04;99473.98;226857;1274;22537;-80
2024/03/19 18:54:29;;;;;;;26.50;18.80;;;;;;;2.76;66.22;99480.00;227011;1274;22545;-79
2024/03/19 18:59:31;;;;;;;28.50;19.50;;;;;;;2.69;66.64;99482.15;226847;1274;22564;-78
2024/03/19 19:04:33;;;;;;;31.90;20.00;;;;;;;2.62;66.85;99481.13;226975;1272;24227;-78
2024/03/19 19:09:35;;;;;;;33.10;20.50;;;;;;;2.56;67.10;99482.77;226870;1272;26130;-79
2024/03/19 19:14:37;;;;;;;34.10;20.90;;;;;;;2.51;67.26;99487.05;226771;1273;24220;-77
2024/03/19 19:19:40;;;;;;;36.90;22.50;;;;;;;2.45;67.50;99489.52;226836;1274;22588;-78
2024/03/19 19:24:42;;;;;;;42.80;24.60;;;;;;;2.40;67.76;99497.45;226914;1272;22467;-77
2024/03/19 19:29:47;;;;;;;46.70;27.70;;;;;;;2.32;67.98;99499.08;227013;1272;22538;-78
2024/03/19 19:34:48;;;;;;;44.40;26.70;;;;;;;2.25;68.28;99492.31;226879;1274;22551;-78
2024/03/19 19:40:05;;;;;;;52.10;29.60;;;;;;;2.17;68.26;99498.52;226977;1270;22541;-79
2024/03/19 19:45:07;;;;;;;43.90;26.20;;;;;;;2.09;68.81;99497.39;227036;1272;22534;-78
2024/03/19 19:50:10;;;;;;;47.20;27.90;;;;;;;2.03;69.01;99497.13;227045;1272;22560;-79
2024/03/19 19:55:12;;;;;;;43.50;26.50;;;;;;;1.99;69.06;99494.33;226834;1272;22546;-79
2024/03/19 20:00:18;;;;;;;48.30;28.50;;;;;;;1.94;69.17;99491.97;226938;1271;22544;-77
2024/03/19 20:05:20;;;;;;;47.00;28.00;;;;;;;1.87;69.52;99488.86;226960;1274;24862;-77
2024/03/19 20:10:22;;;;;;;48.70;29.00;;;;;;;1.79;69.70;99485.45;226840;1272;24253;-78
2024/03/19 20:15:24;;;;;;;50.00;30.20;;;;;;;1.70;69.82;99489.25;226941;1272;22553;-78
2024/03/19 20:20:30;;;;;;;51.40;31.80;;;;;;;1.63;70.12;99484.73;226924;1272;22599;-78
2024/03/19 20:25:32;;;;;;;52.20;30.00;;;;;;;1.55;70.25;99489.88;226794;1274;22552;-79
2024/03/19 20:30:34;;;;;;;51.30;31.40;;;;;;;1.47;70.57;99495.69;226834;1274;22541;-79
2024/03/19 20:35:37;;;;;;;51.70;32.00;;;;;;;1.39;70.65;99500.21;226721;1274;23299;-78
2024/03/19 20:40:39;;;;;;;50.60;30.60;;;;;;;1.30;70.70;99495.17;226879;1271;22558;-78
2024/03/19 20:45:42;;;;;;;51.10;30.00;;;;;;;1.22;71.22;99494.91;226850;1274;24377;-78
2024/03/19 20:50:46;;;;;;;51.20;30.90;;;;;;;1.14;71.25;99498.29;226791;1272;22616;-77
2024/03/19 20:55:48;;;;;;;51.80;29.70;;;;;;;1.06;71.67;99495.88;226975;1268;22561;-77
2024/03/19 21:00:50;;;;;;;50.80;29.70;;;;;;;0.99;71.58;99494.80;226939;1271;22575;-77
2024/03/19 21:05:53;;;;;;;48.60;30.30;;;;;;;0.92;72.14;99494.09;226802;1271;22565;-77
2024/03/19 21:10:55;;;;;;;47.90;27.30;;;;;;;0.86;72.27;99489.02;226854;1274;23010;-77
2024/03/19 21:15:57;;;;;;;45.40;29.30;;;;;;;0.80;72.62;99485.44;226814;1274;22542;-78
2024/03/19 21:20:59;;;;;;;48.10;28.40;;;;;;;0.74;72.93;99489.71;227003;1270;22564;-77
2024/03/19 21:26:01;;;;;;;50.40;30.70;;;;;;;0.68;73.24;99484.56;226937;1272;22537;-77
2024/03/19 21:31:03;;;;;;;47.10;28.90;;;;;;;0.61;73.28;99480.33;226983;1274;22540;-78
2024/03/19 21:36:05;;;;;;;50.20;31.20;;;;;;;0.54;73.54;99479.65;226775;1272;22532;-77
2024/03/19 21:41:07;;;;;;;61.30;37.20;;;;;;;0.48;73.82;99480.48;226781;1272;22541;-78
2024/03/19 21:46:09;;;;;;;85.90;50.60;;;;;;;0.40;73.95;99482.88;226945;1271;22564;-77
2024/03/19 21:51:11;;;;;;;96.20;55.00;;;;;;;0.33;74.06;99481.48;226836;1253;22569;-77
2024/03/19 21:56:12;;;;;;;107.90;63.00;;;;;;;0.25;74.31;99478.55;226897;1272;22545;-77
2024/03/19 22:01:14;;;;;;;104.90;65.30;;;;;;;0.20;74.75;99480.46;226873;1274;22673;-79
2024/03/19 22:06:16;;;;;;;118.00;71.10;;;;;;;0.15;74.49;99475.25;226987;1270;22553;-78
2024/03/19 22:11:18;;;;;;;127.70;72.70;;;;;;;0.10;74.66;99476.98;226919;1270;22553;-78
2024/03/19 22:16:21;;;;;;;132.40;69.80;;;;;;;0.06;75.11;99467.94;226947;1272;22540;-78
2024/03/19 22:21:23;;;;;;;121.50;67.20;;;;;;;0.00;75.06;99471.26;226780;1274;22574;-77
2024/03/19 22:26:26;;;;;;;120.50;64.80;;;;;;;-0.04;75.16;99469.14;226884;1274;23034;-76
2024/03/19 22:31:27;;;;;;;118.90;62.70;;;;;;;-0.08;75.37;99463.73;226969;1271;22578;-78
2024/03/19 22:36:29;;;;;;;121.90;62.10;;;;;;;-0.13;75.52;99466.46;226811;1274;22564;-78
2024/03/19 22:41:31;;;;;;;119.70;61.80;;;;;;;-0.17;75.36;99467.27;226948;1274;22545;-77
2024/03/19 22:46:34;;;;;;;111.20;58.90;;;;;;;-0.23;75.47;99467.63;227007;1273;22591;-77
2024/03/19 22:51:36;;;;;;;113.20;56.60;;;;;;;-0.27;75.26;99465.88;226997;1253;22605;-77
2024/03/19 22:56:38;;;;;;;120.70;60.80;;;;;;;-0.31;75.79;99465.13;227044;1274;22572;-77
2024/03/19 23:01:40;;;;;;;114.70;60.00;;;;;;;-0.36;76.02;99460.19;226994;1274;22567;-78
2024/03/19 23:06:42;;;;;;;116.00;59.50;;;;;;;-0.40;76.20;99454.26;227023;1274;22620;-78
2024/03/19 23:11:46;;;;;;;119.90;61.60;;;;;;;-0.44;76.17;99450.02;226942;1274;22532;-83
2024/03/19 23:16:48;;;;;;;132.10;69.40;;;;;;;-0.48;76.45;99451.34;226858;1269;22598;-83